sensor_id;sensor_type;location;lat;lon;timestamp;P1;durP1;ratioP1;P2;durP2;ratioP2
5955;SDS011;3004;48.080;11.600;2022-12-29T00:01:35;65.47;;;3.20;;
5955;SDS011;3004;48.080;11.600;2022-12-29T00:04:02;65.37;;;3.20;;
5955;SDS011;3004;48.080;11.600;2022-12-29T00:06:30;65.33;;;3.20;;
5955;SDS011;3004;48.080;11.600;2022-12-29T00:08:59;65.23;;;3.20;;
5955;SDS011;3004;48.080;11.600;2022-12-29T00:11:26;65.37;;;3.20;;
5955;SDS011;3004;48.080;11.600;2022-12-29T00:13:54;65.20;;;3.20;;
5955;SDS011;3004;48.080;11.600;2022-12-29T00:16:40;65.13;;;3.20;;
5955;SDS011;3004;48.080;11.600;2022-12-29T00:19:08;65.10;;;3.20;;
5955;SDS011;3004;48.080;11.600;2022-12-29T00:21:56;65.33;;;3.30;;
5955;SDS011;3004;48.080;11.600;2022-12-29T00:24:43;65.50;;;3.50;;
5955;SDS011;3004;48.080;11.600;2022-12-29T00:27:28;65.30;;;3.37;;
5955;SDS011;3004;48.080;11.600;2022-12-29T00:30:14;65.50;;;3.43;;
5955;SDS011;3004;48.080;11.600;2022-12-29T00:32:59;65.43;;;3.40;;
5955;SDS011;3004;48.080;11.600;2022-12-29T00:35:44;65.43;;;3.40;;
5955;SDS011;3004;48.080;11.600;2022-12-29T00:38:12;65.37;;;3.37;;
5955;SDS011;3004;48.080;11.600;2022-12-29T00:40:58;65.20;;;3.53;;
5955;SDS011;3004;48.080;11.600;2022-12-29T00:43:43;65.63;;;3.57;;
5955;SDS011;3004;48.080;11.600;2022-12-29T00:46:28;65.53;;;3.57;;
5955;SDS011;3004;48.080;11.600;2022-12-29T00:48:56;65.57;;;3.50;;
5955;SDS011;3004;48.080;11.600;2022-12-29T00:51:42;65.57;;;3.50;;
5955;SDS011;3004;48.080;11.600;2022-12-29T00:54:09;65.43;;;3.50;;
5955;SDS011;3004;48.080;11.600;2022-12-29T00:56:40;65.57;;;3.40;;
5955;SDS011;3004;48.080;11.600;2022-12-29T00:59:09;65.57;;;3.50;;
5955;SDS011;3004;48.080;11.600;2022-12-29T01:01:37;65.53;;;3.50;;
5955;SDS011;3004;48.080;11.600;2022-12-29T01:04:05;65.53;;;3.50;;
5955;SDS011;3004;48.080;11.600;2022-12-29T01:06:33;65.50;;;3.53;;
5955;SDS011;3004;48.080;11.600;2022-12-29T01:09:00;65.30;;;3.47;;
5955;SDS011;3004;48.080;11.600;2022-12-29T01:11:47;65.77;;;3.50;;
5955;SDS011;3004;48.080;11.600;2022-12-29T01:14:16;65.53;;;3.60;;
5955;SDS011;3004;48.080;11.600;2022-12-29T01:16:46;65.67;;;3.60;;
5955;SDS011;3004;48.080;11.600;2022-12-29T01:19:14;65.57;;;3.47;;
5955;SDS011;3004;48.080;11.600;2022-12-29T01:21:42;65.57;;;3.60;;
5955;SDS011;3004;48.080;11.600;2022-12-29T01:24:09;65.70;;;3.60;;
5955;SDS011;3004;48.080;11.600;2022-12-29T01:26:36;65.50;;;3.70;;
5955;SDS011;3004;48.080;11.600;2022-12-29T01:29:05;65.70;;;3.60;;
5955;SDS011;3004;48.080;11.600;2022-12-29T01:31:32;65.47;;;3.60;;
5955;SDS011;3004;48.080;11.600;2022-12-29T01:33:59;65.50;;;3.60;;
5955;SDS011;3004;48.080;11.600;2022-12-29T01:36:27;65.40;;;3.60;;
5955;SDS011;3004;48.080;11.600;2022-12-29T01:38:55;65.63;;;3.70;;
5955;SDS011;3004;48.080;11.600;2022-12-29T01:41:22;65.77;;;3.70;;
5955;SDS011;3004;48.080;11.600;2022-12-29T01:43:52;66.07;;;3.67;;
5955;SDS011;3004;48.080;11.600;2022-12-29T01:46:22;65.77;;;3.70;;
5955;SDS011;3004;48.080;11.600;2022-12-29T01:48:51;65.67;;;3.70;;
5955;SDS011;3004;48.080;11.600;2022-12-29T01:51:19;65.40;;;3.70;;
5955;SDS011;3004;48.080;11.600;2022-12-29T01:53:48;65.97;;;3.77;;
5955;SDS011;3004;48.080;11.600;2022-12-29T01:56:16;65.50;;;3.80;;
5955;SDS011;3004;48.080;11.600;2022-12-29T01:58:44;65.77;;;3.80;;
5955;SDS011;3004;48.080;11.600;2022-12-29T02:01:13;65.60;;;3.80;;
5955;SDS011;3004;48.080;11.600;2022-12-29T02:03:41;65.50;;;3.70;;
5955;SDS011;3004;48.080;11.600;2022-12-29T02:06:10;65.97;;;3.70;;
5955;SDS011;3004;48.080;11.600;2022-12-29T02:08:38;65.27;;;3.50;;
5955;SDS011;3004;48.080;11.600;2022-12-29T02:11:06;65.67;;;3.50;;
5955;SDS011;3004;48.080;11.600;2022-12-29T02:13:34;65.47;;;3.50;;
5955;SDS011;3004;48.080;11.600;2022-12-29T02:16:04;65.53;;;3.40;;
5955;SDS011;3004;48.080;11.600;2022-12-29T02:18:37;65.40;;;3.40;;
5955;SDS011;3004;48.080;11.600;2022-12-29T02:21:21;65.43;;;3.30;;
5955;SDS011;3004;48.080;11.600;2022-12-29T02:32:10;65.17;;;3.10;;
5955;SDS011;3004;48.080;11.600;2022-12-29T02:34:41;65.27;;;3.00;;
5955;SDS011;3004;48.080;11.600;2022-12-29T02:37:14;64.67;;;2.80;;
5955;SDS011;3004;48.080;11.600;2022-12-29T02:39:46;64.50;;;2.80;;
5955;SDS011;3004;48.080;11.600;2022-12-29T02:42:19;64.50;;;2.70;;
5955;SDS011;3004;48.080;11.600;2022-12-29T02:44:51;64.40;;;2.70;;
5955;SDS011;3004;48.080;11.600;2022-12-29T02:47:23;64.60;;;2.60;;
5955;SDS011;3004;48.080;11.600;2022-12-29T02:49:53;64.80;;;2.53;;
5955;SDS011;3004;48.080;11.600;2022-12-29T02:52:26;64.87;;;2.30;;
5955;SDS011;3004;48.080;11.600;2022-12-29T02:54:54;64.67;;;2.30;;
5955;SDS011;3004;48.080;11.600;2022-12-29T02:57:31;64.60;;;2.00;;
5955;SDS011;3004;48.080;11.600;2022-12-29T03:00:00;64.83;;;1.77;;
5955;SDS011;3004;48.080;11.600;2022-12-29T03:07:58;65.27;;;1.80;;
5955;SDS011;3004;48.080;11.600;2022-12-29T03:10:31;65.03;;;1.30;;
5955;SDS011;3004;48.080;11.600;2022-12-29T03:13:01;65.23;;;1.40;;
5955;SDS011;3004;48.080;11.600;2022-12-29T03:15:50;64.90;;;1.40;;
5955;SDS011;3004;48.080;11.600;2022-12-29T03:18:29;65.27;;;1.30;;
5955;SDS011;3004;48.080;11.600;2022-12-29T03:21:00;65.30;;;1.20;;
5955;SDS011;3004;48.080;11.600;2022-12-29T03:23:31;65.07;;;1.20;;
5955;SDS011;3004;48.080;11.600;2022-12-29T03:26:01;65.43;;;1.30;;
5955;SDS011;3004;48.080;11.600;2022-12-29T03:28:29;65.43;;;1.30;;
5955;SDS011;3004;48.080;11.600;2022-12-29T03:31:00;65.63;;;1.23;;
5955;SDS011;3004;48.080;11.600;2022-12-29T03:33:27;65.67;;;1.30;;
5955;SDS011;3004;48.080;11.600;2022-12-29T03:35:57;65.57;;;1.40;;
5955;SDS011;3004;48.080;11.600;2022-12-29T03:38:27;64.80;;;1.20;;
5955;SDS011;3004;48.080;11.600;2022-12-29T03:40:58;65.27;;;1.20;;
5955;SDS011;3004;48.080;11.600;2022-12-29T03:43:26;65.57;;;1.20;;
5955;SDS011;3004;48.080;11.600;2022-12-29T03:45:53;65.50;;;1.20;;
5955;SDS011;3004;48.080;11.600;2022-12-29T03:48:21;65.87;;;1.20;;
5955;SDS011;3004;48.080;11.600;2022-12-29T03:50:50;65.67;;;1.20;;
5955;SDS011;3004;48.080;11.600;2022-12-29T03:53:17;65.83;;;1.20;;
5955;SDS011;3004;48.080;11.600;2022-12-29T03:55:45;66.07;;;1.63;;
5955;SDS011;3004;48.080;11.600;2022-12-29T03:58:13;65.97;;;1.20;;
5955;SDS011;3004;48.080;11.600;2022-12-29T04:00:41;65.70;;;1.20;;
5955;SDS011;3004;48.080;11.600;2022-12-29T04:03:08;65.87;;;1.10;;
5955;SDS011;3004;48.080;11.600;2022-12-29T04:05:35;65.97;;;1.10;;
5955;SDS011;3004;48.080;11.600;2022-12-29T04:08:02;65.70;;;1.20;;
5955;SDS011;3004;48.080;11.600;2022-12-29T04:10:30;65.77;;;1.13;;
5955;SDS011;3004;48.080;11.600;2022-12-29T04:12:57;65.70;;;1.20;;
5955;SDS011;3004;48.080;11.600;2022-12-29T04:15:26;65.80;;;1.20;;
5955;SDS011;3004;48.080;11.600;2022-12-29T04:17:53;66.17;;;1.90;;
5955;SDS011;3004;48.080;11.600;2022-12-29T04:20:20;65.90;;;1.20;;
5955;SDS011;3004;48.080;11.600;2022-12-29T04:23:06;65.67;;;1.20;;
5955;SDS011;3004;48.080;11.600;2022-12-29T04:25:33;65.90;;;1.17;;
5955;SDS011;3004;48.080;11.600;2022-12-29T04:28:01;65.10;;;1.10;;
5955;SDS011;3004;48.080;11.600;2022-12-29T04:30:29;65.30;;;1.10;;
5955;SDS011;3004;48.080;11.600;2022-12-29T04:32:59;65.40;;;1.10;;
5955;SDS011;3004;48.080;11.600;2022-12-29T04:35:26;65.70;;;1.10;;
5955;SDS011;3004;48.080;11.600;2022-12-29T04:37:53;67.63;;;1.70;;
5955;SDS011;3004;48.080;11.600;2022-12-29T04:40:22;65.87;;;1.20;;
5955;SDS011;3004;48.080;11.600;2022-12-29T04:42:49;65.60;;;1.13;;
5955;SDS011;3004;48.080;11.600;2022-12-29T04:45:17;66.07;;;1.30;;
5955;SDS011;3004;48.080;11.600;2022-12-29T04:47:46;65.60;;;1.30;;
5955;SDS011;3004;48.080;11.600;2022-12-29T04:50:13;65.80;;;1.17;;
5955;SDS011;3004;48.080;11.600;2022-12-29T04:52:40;66.07;;;1.20;;
5955;SDS011;3004;48.080;11.600;2022-12-29T04:55:08;65.73;;;1.20;;
5955;SDS011;3004;48.080;11.600;2022-12-29T04:57:35;65.87;;;1.10;;
5955;SDS011;3004;48.080;11.600;2022-12-29T05:00:06;65.87;;;1.30;;
5955;SDS011;3004;48.080;11.600;2022-12-29T05:02:35;65.77;;;1.10;;
5955;SDS011;3004;48.080;11.600;2022-12-29T05:05:04;65.73;;;1.20;;
5955;SDS011;3004;48.080;11.600;2022-12-29T05:07:31;65.70;;;1.20;;
5955;SDS011;3004;48.080;11.600;2022-12-29T05:10:04;65.70;;;1.10;;
5955;SDS011;3004;48.080;11.600;2022-12-29T05:12:32;65.50;;;1.20;;
5955;SDS011;3004;48.080;11.600;2022-12-29T05:14:59;65.60;;;1.27;;
5955;SDS011;3004;48.080;11.600;2022-12-29T05:17:27;65.57;;;1.20;;
5955;SDS011;3004;48.080;11.600;2022-12-29T05:19:55;65.70;;;1.20;;
5955;SDS011;3004;48.080;11.600;2022-12-29T05:22:24;65.50;;;1.20;;
5955;SDS011;3004;48.080;11.600;2022-12-29T05:24:51;65.53;;;1.20;;
5955;SDS011;3004;48.080;11.600;2022-12-29T05:30:14;65.63;;;1.20;;
5955;SDS011;3004;48.080;11.600;2022-12-29T05:32:41;65.50;;;1.20;;
5955;SDS011;3004;48.080;11.600;2022-12-29T05:35:09;65.20;;;1.20;;
5955;SDS011;3004;48.080;11.600;2022-12-29T05:37:37;65.10;;;1.30;;
5955;SDS011;3004;48.080;11.600;2022-12-29T05:40:05;65.27;;;1.20;;
5955;SDS011;3004;48.080;11.600;2022-12-29T05:42:33;64.90;;;1.20;;
5955;SDS011;3004;48.080;11.600;2022-12-29T05:45:00;65.00;;;1.20;;
5955;SDS011;3004;48.080;11.600;2022-12-29T05:47:27;65.17;;;1.30;;
5955;SDS011;3004;48.080;11.600;2022-12-29T05:49:55;65.27;;;1.30;;
5955;SDS011;3004;48.080;11.600;2022-12-29T05:52:23;65.07;;;1.40;;
5955;SDS011;3004;48.080;11.600;2022-12-29T05:54:52;65.23;;;1.40;;
5955;SDS011;3004;48.080;11.600;2022-12-29T05:57:19;65.27;;;1.30;;
5955;SDS011;3004;48.080;11.600;2022-12-29T05:59:48;65.23;;;1.30;;
5955;SDS011;3004;48.080;11.600;2022-12-29T06:02:15;65.47;;;1.50;;
5955;SDS011;3004;48.080;11.600;2022-12-29T06:04:43;64.97;;;1.40;;
5955;SDS011;3004;48.080;11.600;2022-12-29T06:07:10;64.97;;;1.40;;
5955;SDS011;3004;48.080;11.600;2022-12-29T06:09:37;65.13;;;1.30;;
5955;SDS011;3004;48.080;11.600;2022-12-29T06:12:06;65.47;;;1.40;;
5955;SDS011;3004;48.080;11.600;2022-12-29T06:14:34;65.20;;;1.20;;
5955;SDS011;3004;48.080;11.600;2022-12-29T06:17:01;65.07;;;1.30;;
5955;SDS011;3004;48.080;11.600;2022-12-29T06:19:32;65.30;;;1.23;;
5955;SDS011;3004;48.080;11.600;2022-12-29T06:21:59;65.27;;;1.30;;
5955;SDS011;3004;48.080;11.600;2022-12-29T06:24:28;65.20;;;1.40;;
5955;SDS011;3004;48.080;11.600;2022-12-29T06:26:58;65.37;;;1.40;;
5955;SDS011;3004;48.080;11.600;2022-12-29T06:29:27;65.10;;;1.40;;
5955;SDS011;3004;48.080;11.600;2022-12-29T06:31:54;65.13;;;1.50;;
5955;SDS011;3004;48.080;11.600;2022-12-29T06:34:23;65.73;;;1.60;;
5955;SDS011;3004;48.080;11.600;2022-12-29T06:36:50;65.27;;;1.30;;
5955;SDS011;3004;48.080;11.600;2022-12-29T06:39:18;65.37;;;1.30;;
5955;SDS011;3004;48.080;11.600;2022-12-29T06:41:45;64.70;;;1.30;;
5955;SDS011;3004;48.080;11.600;2022-12-29T06:44:12;65.27;;;1.30;;
5955;SDS011;3004;48.080;11.600;2022-12-29T06:46:46;65.47;;;1.30;;
5955;SDS011;3004;48.080;11.600;2022-12-29T06:49:18;65.37;;;1.40;;
5955;SDS011;3004;48.080;11.600;2022-12-29T06:51:50;65.23;;;1.30;;
5955;SDS011;3004;48.080;11.600;2022-12-29T06:57:25;65.23;;;1.30;;
5955;SDS011;3004;48.080;11.600;2022-12-29T06:59:52;65.53;;;1.60;;
5955;SDS011;3004;48.080;11.600;2022-12-29T07:05:26;65.27;;;1.20;;
5955;SDS011;3004;48.080;11.600;2022-12-29T07:07:53;65.07;;;1.20;;
5955;SDS011;3004;48.080;11.600;2022-12-29T07:13:08;65.43;;;1.20;;
5955;SDS011;3004;48.080;11.600;2022-12-29T07:15:35;65.37;;;1.10;;
5955;SDS011;3004;48.080;11.600;2022-12-29T07:18:03;65.27;;;1.23;;
5955;SDS011;3004;48.080;11.600;2022-12-29T07:20:32;65.43;;;1.20;;
5955;SDS011;3004;48.080;11.600;2022-12-29T07:29:06;65.50;;;1.20;;
5955;SDS011;3004;48.080;11.600;2022-12-29T07:31:36;65.47;;;1.20;;
5955;SDS011;3004;48.080;11.600;2022-12-29T07:37:14;65.73;;;1.20;;
5955;SDS011;3004;48.080;11.600;2022-12-29T07:42:47;65.77;;;1.20;;
5955;SDS011;3004;48.080;11.600;2022-12-29T07:48:18;65.77;;;1.20;;
5955;SDS011;3004;48.080;11.600;2022-12-29T07:50:45;65.47;;;1.10;;
5955;SDS011;3004;48.080;11.600;2022-12-29T07:53:14;65.30;;;1.20;;
5955;SDS011;3004;48.080;11.600;2022-12-29T08:07:55;66.73;;;2.23;;
5955;SDS011;3004;48.080;11.600;2022-12-29T08:10:24;65.70;;;1.20;;
5955;SDS011;3004;48.080;11.600;2022-12-29T08:12:52;65.77;;;1.20;;
5955;SDS011;3004;48.080;11.600;2022-12-29T08:15:19;65.83;;;1.20;;
5955;SDS011;3004;48.080;11.600;2022-12-29T08:17:52;65.67;;;1.20;;
5955;SDS011;3004;48.080;11.600;2022-12-29T08:20:20;65.90;;;1.20;;
5955;SDS011;3004;48.080;11.600;2022-12-29T08:22:50;66.23;;;1.30;;
5955;SDS011;3004;48.080;11.600;2022-12-29T08:25:18;66.07;;;1.20;;
5955;SDS011;3004;48.080;11.600;2022-12-29T08:27:47;66.17;;;1.20;;
5955;SDS011;3004;48.080;11.600;2022-12-29T08:30:15;66.17;;;1.30;;
5955;SDS011;3004;48.080;11.600;2022-12-29T08:32:43;66.17;;;1.20;;
5955;SDS011;3004;48.080;11.600;2022-12-29T08:38:14;66.13;;;1.20;;
5955;SDS011;3004;48.080;11.600;2022-12-29T08:40:43;66.43;;;1.60;;
5955;SDS011;3004;48.080;11.600;2022-12-29T08:43:13;66.07;;;1.10;;
5955;SDS011;3004;48.080;11.600;2022-12-29T08:48:45;66.47;;;1.20;;
5955;SDS011;3004;48.080;11.600;2022-12-29T08:51:14;66.10;;;1.30;;
5955;SDS011;3004;48.080;11.600;2022-12-29T08:53:46;66.07;;;1.20;;
5955;SDS011;3004;48.080;11.600;2022-12-29T09:02:38;66.27;;;1.20;;
5955;SDS011;3004;48.080;11.600;2022-12-29T09:08:25;66.27;;;1.20;;
5955;SDS011;3004;48.080;11.600;2022-12-29T09:14:31;66.83;;;1.10;;
5955;SDS011;3004;48.080;11.600;2022-12-29T09:23:29;66.73;;;1.20;;
5955;SDS011;3004;48.080;11.600;2022-12-29T09:25:58;66.67;;;1.30;;
5955;SDS011;3004;48.080;11.600;2022-12-29T09:28:33;66.40;;;1.20;;
5955;SDS011;3004;48.080;11.600;2022-12-29T09:34:18;67.40;;;1.83;;
5955;SDS011;3004;48.080;11.600;2022-12-29T09:39:59;66.97;;;1.10;;
5955;SDS011;3004;48.080;11.600;2022-12-29T09:42:29;67.17;;;1.90;;
5955;SDS011;3004;48.080;11.600;2022-12-29T09:48:04;66.87;;;1.30;;
5955;SDS011;3004;48.080;11.600;2022-12-29T09:56:50;66.70;;;1.20;;
5955;SDS011;3004;48.080;11.600;2022-12-29T09:59:24;66.97;;;1.10;;
5955;SDS011;3004;48.080;11.600;2022-12-29T10:04:48;66.90;;;1.30;;
5955;SDS011;3004;48.080;11.600;2022-12-29T10:07:23;67.07;;;1.20;;
5955;SDS011;3004;48.080;11.600;2022-12-29T10:22:13;67.07;;;1.20;;
5955;SDS011;3004;48.080;11.600;2022-12-29T10:24:46;67.07;;;1.10;;
5955;SDS011;3004;48.080;11.600;2022-12-29T10:33:30;67.23;;;1.53;;
5955;SDS011;3004;48.080;11.600;2022-12-29T10:36:12;67.07;;;1.20;;
5955;SDS011;3004;48.080;11.600;2022-12-29T10:38:44;67.10;;;1.30;;
5955;SDS011;3004;48.080;11.600;2022-12-29T10:44:12;66.90;;;1.10;;
5955;SDS011;3004;48.080;11.600;2022-12-29T10:49:20;66.63;;;1.30;;
5955;SDS011;3004;48.080;11.600;2022-12-29T10:51:52;66.90;;;1.30;;
5955;SDS011;3004;48.080;11.600;2022-12-29T10:54:26;67.87;;;1.60;;
5955;SDS011;3004;48.080;11.600;2022-12-29T10:56:59;67.33;;;1.30;;
5955;SDS011;3004;48.080;11.600;2022-12-29T10:59:30;67.40;;;1.40;;
5955;SDS011;3004;48.080;11.600;2022-12-29T11:02:04;67.17;;;1.20;;
5955;SDS011;3004;48.080;11.600;2022-12-29T11:04:43;67.40;;;1.20;;
5955;SDS011;3004;48.080;11.600;2022-12-29T11:07:15;67.37;;;1.20;;
5955;SDS011;3004;48.080;11.600;2022-12-29T11:13:01;67.47;;;1.20;;
5955;SDS011;3004;48.080;11.600;2022-12-29T14:31:52;67.57;;;1.37;;
5955;SDS011;3004;48.080;11.600;2022-12-29T14:34:30;66.90;;;1.20;;
5955;SDS011;3004;48.080;11.600;2022-12-29T14:36:58;67.30;;;1.40;;
5955;SDS011;3004;48.080;11.600;2022-12-29T14:39:32;70.97;;;2.60;;
5955;SDS011;3004;48.080;11.600;2022-12-29T14:42:03;67.47;;;1.80;;
5955;SDS011;3004;48.080;11.600;2022-12-29T14:44:31;67.00;;;1.20;;
5955;SDS011;3004;48.080;11.600;2022-12-29T14:50:12;68.30;;;1.70;;
5955;SDS011;3004;48.080;11.600;2022-12-29T14:52:50;67.57;;;1.60;;
5955;SDS011;3004;48.080;11.600;2022-12-29T14:55:28;67.40;;;1.20;;
5955;SDS011;3004;48.080;11.600;2022-12-29T14:58:12;67.00;;;1.20;;
5955;SDS011;3004;48.080;11.600;2022-12-29T15:00:44;67.47;;;1.20;;
5955;SDS011;3004;48.080;11.600;2022-12-29T15:03:30;67.63;;;1.93;;
5955;SDS011;3004;48.080;11.600;2022-12-29T15:08:52;67.37;;;1.20;;
5955;SDS011;3004;48.080;11.600;2022-12-29T15:11:41;67.00;;;1.30;;
5955;SDS011;3004;48.080;11.600;2022-12-29T15:14:32;66.90;;;1.10;;
5955;SDS011;3004;48.080;11.600;2022-12-29T15:17:01;67.07;;;1.20;;
5955;SDS011;3004;48.080;11.600;2022-12-29T15:19:31;67.17;;;1.20;;
5955;SDS011;3004;48.080;11.600;2022-12-29T15:22:05;67.50;;;1.50;;
5955;SDS011;3004;48.080;11.600;2022-12-29T15:24:35;66.87;;;1.30;;
5955;SDS011;3004;48.080;11.600;2022-12-29T15:27:07;67.17;;;1.20;;
5955;SDS011;3004;48.080;11.600;2022-12-29T15:29:37;67.37;;;1.50;;
5955;SDS011;3004;48.080;11.600;2022-12-29T15:32:20;66.97;;;1.20;;
5955;SDS011;3004;48.080;11.600;2022-12-29T15:34:48;66.77;;;1.30;;
5955;SDS011;3004;48.080;11.600;2022-12-29T15:37:20;66.40;;;1.27;;
5955;SDS011;3004;48.080;11.600;2022-12-29T15:39:52;66.77;;;1.20;;
5955;SDS011;3004;48.080;11.600;2022-12-29T15:42:29;66.93;;;1.20;;
5955;SDS011;3004;48.080;11.600;2022-12-29T15:45:01;71.80;;;1.60;;
5955;SDS011;3004;48.080;11.600;2022-12-29T15:47:32;67.33;;;1.20;;
5955;SDS011;3004;48.080;11.600;2022-12-29T15:50:03;67.17;;;1.20;;
5955;SDS011;3004;48.080;11.600;2022-12-29T15:52:33;67.30;;;1.30;;
5955;SDS011;3004;48.080;11.600;2022-12-29T15:55:16;66.77;;;1.30;;
5955;SDS011;3004;48.080;11.600;2022-12-29T15:57:48;66.77;;;1.20;;
5955;SDS011;3004;48.080;11.600;2022-12-29T16:00:23;67.03;;;1.20;;
5955;SDS011;3004;48.080;11.600;2022-12-29T16:03:05;67.40;;;1.93;;
5955;SDS011;3004;48.080;11.600;2022-12-29T16:05:50;66.90;;;1.20;;
5955;SDS011;3004;48.080;11.600;2022-12-29T16:08:29;66.57;;;1.40;;
5955;SDS011;3004;48.080;11.600;2022-12-29T16:11:00;66.67;;;1.30;;
5955;SDS011;3004;48.080;11.600;2022-12-29T16:13:31;66.57;;;1.20;;
5955;SDS011;3004;48.080;11.600;2022-12-29T16:16:07;66.67;;;1.30;;
5955;SDS011;3004;48.080;11.600;2022-12-29T16:18:36;66.40;;;1.20;;
5955;SDS011;3004;48.080;11.600;2022-12-29T16:21:04;66.50;;;1.30;;
5955;SDS011;3004;48.080;11.600;2022-12-29T16:23:32;66.70;;;1.60;;
5955;SDS011;3004;48.080;11.600;2022-12-29T16:26:10;66.77;;;1.67;;
5955;SDS011;3004;48.080;11.600;2022-12-29T16:28:42;66.50;;;1.20;;
5955;SDS011;3004;48.080;11.600;2022-12-29T16:31:16;66.70;;;1.40;;
5955;SDS011;3004;48.080;11.600;2022-12-29T16:33:46;66.47;;;1.30;;
5955;SDS011;3004;48.080;11.600;2022-12-29T16:36:27;66.87;;;1.33;;
5955;SDS011;3004;48.080;11.600;2022-12-29T16:41:42;66.50;;;1.40;;
5955;SDS011;3004;48.080;11.600;2022-12-29T16:44:12;66.37;;;1.20;;
5955;SDS011;3004;48.080;11.600;2022-12-29T16:46:46;66.57;;;1.40;;
5955;SDS011;3004;48.080;11.600;2022-12-29T16:49:36;66.77;;;1.20;;
5955;SDS011;3004;48.080;11.600;2022-12-29T16:52:11;66.57;;;1.10;;
5955;SDS011;3004;48.080;11.600;2022-12-29T16:54:47;66.47;;;1.20;;
5955;SDS011;3004;48.080;11.600;2022-12-29T16:57:16;66.87;;;1.20;;
5955;SDS011;3004;48.080;11.600;2022-12-29T16:59:47;67.60;;;2.07;;
5955;SDS011;3004;48.080;11.600;2022-12-29T17:02:22;66.73;;;1.30;;
5955;SDS011;3004;48.080;11.600;2022-12-29T17:04:56;66.63;;;1.20;;
5955;SDS011;3004;48.080;11.600;2022-12-29T17:07:24;66.60;;;1.20;;
5955;SDS011;3004;48.080;11.600;2022-12-29T17:09:55;66.57;;;1.40;;
5955;SDS011;3004;48.080;11.600;2022-12-29T17:12:25;66.57;;;1.30;;
5955;SDS011;3004;48.080;11.600;2022-12-29T17:14:56;66.63;;;1.30;;
5955;SDS011;3004;48.080;11.600;2022-12-29T17:17:29;66.27;;;1.20;;
5955;SDS011;3004;48.080;11.600;2022-12-29T17:20:04;66.57;;;1.50;;
5955;SDS011;3004;48.080;11.600;2022-12-29T17:22:32;66.00;;;1.30;;
5955;SDS011;3004;48.080;11.600;2022-12-29T17:25:02;66.73;;;1.30;;
5955;SDS011;3004;48.080;11.600;2022-12-29T17:27:32;66.47;;;1.30;;
5955;SDS011;3004;48.080;11.600;2022-12-29T17:30:02;66.27;;;1.20;;
5955;SDS011;3004;48.080;11.600;2022-12-29T17:32:36;66.67;;;1.80;;
5955;SDS011;3004;48.080;11.600;2022-12-29T17:35:12;66.87;;;1.47;;
5955;SDS011;3004;48.080;11.600;2022-12-29T17:37:39;66.33;;;1.30;;
5955;SDS011;3004;48.080;11.600;2022-12-29T17:40:12;66.10;;;1.30;;
5955;SDS011;3004;48.080;11.600;2022-12-29T17:42:42;65.93;;;1.30;;
5955;SDS011;3004;48.080;11.600;2022-12-29T17:45:16;66.30;;;1.30;;
5955;SDS011;3004;48.080;11.600;2022-12-29T17:47:48;65.90;;;1.30;;
5955;SDS011;3004;48.080;11.600;2022-12-29T17:50:16;67.27;;;2.20;;
5955;SDS011;3004;48.080;11.600;2022-12-29T17:52:44;66.37;;;1.50;;
5955;SDS011;3004;48.080;11.600;2022-12-29T17:55:14;66.43;;;1.40;;
5955;SDS011;3004;48.080;11.600;2022-12-29T17:57:45;66.10;;;1.20;;
5955;SDS011;3004;48.080;11.600;2022-12-29T18:00:14;66.20;;;1.30;;
5955;SDS011;3004;48.080;11.600;2022-12-29T18:02:42;66.53;;;1.30;;
5955;SDS011;3004;48.080;11.600;2022-12-29T18:05:14;66.20;;;1.37;;
5955;SDS011;3004;48.080;11.600;2022-12-29T18:07:45;65.80;;;1.40;;
5955;SDS011;3004;48.080;11.600;2022-12-29T18:10:12;67.70;;;3.20;;
5955;SDS011;3004;48.080;11.600;2022-12-29T18:12:48;66.17;;;1.40;;
5955;SDS011;3004;48.080;11.600;2022-12-29T18:15:17;66.37;;;1.60;;
5955;SDS011;3004;48.080;11.600;2022-12-29T18:17:46;66.17;;;1.40;;
5955;SDS011;3004;48.080;11.600;2022-12-29T18:20:22;66.17;;;1.50;;
5955;SDS011;3004;48.080;11.600;2022-12-29T18:23:08;65.90;;;1.40;;
5955;SDS011;3004;48.080;11.600;2022-12-29T18:25:42;66.73;;;1.90;;
5955;SDS011;3004;48.080;11.600;2022-12-29T18:28:14;65.90;;;1.50;;
5955;SDS011;3004;48.080;11.600;2022-12-29T18:30:44;65.77;;;1.50;;
5955;SDS011;3004;48.080;11.600;2022-12-29T18:33:16;65.80;;;1.50;;
5955;SDS011;3004;48.080;11.600;2022-12-29T18:38:52;65.70;;;1.50;;
5955;SDS011;3004;48.080;11.600;2022-12-29T18:41:21;66.23;;;1.60;;
5955;SDS011;3004;48.080;11.600;2022-12-29T18:44:07;65.80;;;1.40;;
5955;SDS011;3004;48.080;11.600;2022-12-29T18:46:39;65.90;;;1.50;;
5955;SDS011;3004;48.080;11.600;2022-12-29T18:49:06;65.80;;;1.60;;
5955;SDS011;3004;48.080;11.600;2022-12-29T18:51:34;66.27;;;1.40;;
5955;SDS011;3004;48.080;11.600;2022-12-29T18:54:03;65.97;;;1.50;;
5955;SDS011;3004;48.080;11.600;2022-12-29T18:56:30;65.60;;;1.57;;
5955;SDS011;3004;48.080;11.600;2022-12-29T18:58:59;78.73;;;2.63;;
5955;SDS011;3004;48.080;11.600;2022-12-29T19:01:27;66.07;;;1.50;;
5955;SDS011;3004;48.080;11.600;2022-12-29T19:03:56;65.90;;;1.43;;
5955;SDS011;3004;48.080;11.600;2022-12-29T19:06:25;69.63;;;3.50;;
5955;SDS011;3004;48.080;11.600;2022-12-29T19:08:53;65.90;;;1.40;;
5955;SDS011;3004;48.080;11.600;2022-12-29T19:11:22;65.50;;;1.40;;
5955;SDS011;3004;48.080;11.600;2022-12-29T19:13:50;65.97;;;1.30;;
5955;SDS011;3004;48.080;11.600;2022-12-29T19:16:21;66.10;;;1.40;;
5955;SDS011;3004;48.080;11.600;2022-12-29T19:18:49;65.90;;;1.40;;
5955;SDS011;3004;48.080;11.600;2022-12-29T19:21:17;66.33;;;1.47;;
5955;SDS011;3004;48.080;11.600;2022-12-29T19:23:50;65.47;;;1.40;;
5955;SDS011;3004;48.080;11.600;2022-12-29T19:26:38;66.07;;;1.30;;
5955;SDS011;3004;48.080;11.600;2022-12-29T19:29:07;66.10;;;1.30;;
5955;SDS011;3004;48.080;11.600;2022-12-29T19:31:40;66.10;;;1.30;;
5955;SDS011;3004;48.080;11.600;2022-12-29T19:34:08;66.27;;;1.40;;
5955;SDS011;3004;48.080;11.600;2022-12-29T19:36:36;66.50;;;1.30;;
5955;SDS011;3004;48.080;11.600;2022-12-29T19:39:03;65.90;;;1.30;;
5955;SDS011;3004;48.080;11.600;2022-12-29T19:41:40;66.13;;;1.40;;
5955;SDS011;3004;48.080;11.600;2022-12-29T19:44:07;66.00;;;1.30;;
5955;SDS011;3004;48.080;11.600;2022-12-29T19:46:35;66.50;;;1.20;;
5955;SDS011;3004;48.080;11.600;2022-12-29T19:49:03;66.33;;;1.30;;
5955;SDS011;3004;48.080;11.600;2022-12-29T19:51:31;66.37;;;1.30;;
5955;SDS011;3004;48.080;11.600;2022-12-29T19:54:00;66.17;;;1.30;;
5955;SDS011;3004;48.080;11.600;2022-12-29T19:56:39;66.20;;;1.43;;
5955;SDS011;3004;48.080;11.600;2022-12-29T19:59:11;66.47;;;1.30;;
5955;SDS011;3004;48.080;11.600;2022-12-29T20:01:55;66.37;;;1.30;;
5955;SDS011;3004;48.080;11.600;2022-12-29T20:04:31;66.57;;;1.37;;
5955;SDS011;3004;48.080;11.600;2022-12-29T20:07:01;66.90;;;1.67;;
5955;SDS011;3004;48.080;11.600;2022-12-29T20:09:28;66.10;;;1.70;;
5955;SDS011;3004;48.080;11.600;2022-12-29T20:11:55;66.07;;;1.30;;
5955;SDS011;3004;48.080;11.600;2022-12-29T20:14:23;66.37;;;1.40;;
5955;SDS011;3004;48.080;11.600;2022-12-29T20:16:50;66.40;;;1.90;;
5955;SDS011;3004;48.080;11.600;2022-12-29T20:19:17;66.17;;;1.63;;
5955;SDS011;3004;48.080;11.600;2022-12-29T20:21:49;65.90;;;1.40;;
5955;SDS011;3004;48.080;11.600;2022-12-29T20:24:17;66.10;;;1.40;;
5955;SDS011;3004;48.080;11.600;2022-12-29T20:26:47;65.97;;;1.47;;
5955;SDS011;3004;48.080;11.600;2022-12-29T20:29:14;66.33;;;1.40;;
5955;SDS011;3004;48.080;11.600;2022-12-29T20:31:42;66.47;;;1.73;;
5955;SDS011;3004;48.080;11.600;2022-12-29T20:34:18;65.90;;;1.30;;
5955;SDS011;3004;48.080;11.600;2022-12-29T20:36:45;65.27;;;1.50;;
5955;SDS011;3004;48.080;11.600;2022-12-29T20:39:15;65.70;;;1.30;;
5955;SDS011;3004;48.080;11.600;2022-12-29T20:41:45;66.47;;;1.30;;
5955;SDS011;3004;48.080;11.600;2022-12-29T20:46:45;66.07;;;1.40;;